sensor_id;sensor_type;location;lat;lon;timestamp;P1;durP1;ratioP1;P2;durP2;ratioP2
45893;SDS011;31603;51.148;16.932;2023-09-18T00:01:44;364.98;;;322.20;;
45893;SDS011;31603;51.148;16.932;2023-09-18T00:04:10;364.92;;;326.33;;
45893;SDS011;31603;51.148;16.932;2023-09-18T00:06:36;267.50;;;242.82;;
45893;SDS011;31603;51.148;16.932;2023-09-18T00:09:04;351.60;;;313.55;;
45893;SDS011;31603;51.148;16.932;2023-09-18T00:11:32;342.85;;;306.10;;
45893;SDS011;31603;51.148;16.932;2023-09-18T00:13:58;292.13;;;266.10;;
45893;SDS011;31603;51.148;16.932;2023-09-18T00:16:24;321.38;;;291.38;;
45893;SDS011;31603;51.148;16.932;2023-09-18T00:18:52;310.90;;;280.98;;
45893;SDS011;31603;51.148;16.932;2023-09-18T00:21:18;169.65;;;149.75;;
45893;SDS011;31603;51.148;16.932;2023-09-18T00:23:44;65.78;;;27.05;;
45893;SDS011;31603;51.148;16.932;2023-09-18T00:26:12;164.00;;;147.23;;
45893;SDS011;31603;51.148;16.932;2023-09-18T00:28:39;190.18;;;172.55;;
45893;SDS011;31603;51.148;16.932;2023-09-18T00:31:05;188.18;;;171.25;;
45893;SDS011;31603;51.148;16.932;2023-09-18T00:33:31;270.80;;;245.73;;
45893;SDS011;31603;51.148;16.932;2023-09-18T00:35:58;226.70;;;206.45;;
45893;SDS011;31603;51.148;16.932;2023-09-18T00:38:24;212.90;;;191.40;;
45893;SDS011;31603;51.148;16.932;2023-09-18T00:40:50;198.18;;;179.07;;
45893;SDS011;31603;51.148;16.932;2023-09-18T00:43:18;135.48;;;115.38;;
45893;SDS011;31603;51.148;16.932;2023-09-18T00:45:46;83.78;;;27.00;;
45893;SDS011;31603;51.148;16.932;2023-09-18T00:48:13;183.30;;;164.70;;
45893;SDS011;31603;51.148;16.932;2023-09-18T00:50:40;98.32;;;56.97;;
45893;SDS011;31603;51.148;16.932;2023-09-18T00:53:07;94.78;;;57.60;;
45893;SDS011;31603;51.148;16.932;2023-09-18T00:55:33;82.88;;;16.77;;
45893;SDS011;31603;51.148;16.932;2023-09-18T00:58:02;76.03;;;24.88;;
45893;SDS011;31603;51.148;16.932;2023-09-18T01:00:30;112.50;;;45.35;;
45893;SDS011;31603;51.148;16.932;2023-09-18T01:02:56;97.45;;;31.50;;
45893;SDS011;31603;51.148;16.932;2023-09-18T01:05:22;82.97;;;21.58;;
45893;SDS011;31603;51.148;16.932;2023-09-18T01:07:49;94.05;;;28.40;;
45893;SDS011;31603;51.148;16.932;2023-09-18T01:10:16;83.53;;;29.58;;
45893;SDS011;31603;51.148;16.932;2023-09-18T01:12:44;101.88;;;45.08;;
45893;SDS011;31603;51.148;16.932;2023-09-18T01:15:14;224.43;;;203.48;;
45893;SDS011;31603;51.148;16.932;2023-09-18T01:17:44;213.20;;;187.77;;
45893;SDS011;31603;51.148;16.932;2023-09-18T01:20:11;133.75;;;102.78;;
45893;SDS011;31603;51.148;16.932;2023-09-18T01:22:39;80.20;;;28.08;;
45893;SDS011;31603;51.148;16.932;2023-09-18T01:25:05;102.32;;;46.00;;
45893;SDS011;31603;51.148;16.932;2023-09-18T01:27:33;124.63;;;74.80;;
45893;SDS011;31603;51.148;16.932;2023-09-18T01:29:59;109.10;;;45.50;;
45893;SDS011;31603;51.148;16.932;2023-09-18T01:32:26;110.05;;;53.10;;
45893;SDS011;31603;51.148;16.932;2023-09-18T01:34:54;88.75;;;33.75;;
45893;SDS011;31603;51.148;16.932;2023-09-18T01:37:23;169.10;;;124.97;;
45893;SDS011;31603;51.148;16.932;2023-09-18T01:39:52;136.55;;;94.70;;
45893;SDS011;31603;51.148;16.932;2023-09-18T01:42:18;155.65;;;139.23;;
45893;SDS011;31603;51.148;16.932;2023-09-18T01:44:46;132.30;;;103.85;;
45893;SDS011;31603;51.148;16.932;2023-09-18T01:47:14;93.30;;;19.45;;
45893;SDS011;31603;51.148;16.932;2023-09-18T01:49:41;93.43;;;23.67;;
45893;SDS011;31603;51.148;16.932;2023-09-18T01:52:07;120.85;;;43.72;;
45893;SDS011;31603;51.148;16.932;2023-09-18T01:54:34;89.60;;;32.47;;
45893;SDS011;31603;51.148;16.932;2023-09-18T01:57:02;180.45;;;162.02;;
45893;SDS011;31603;51.148;16.932;2023-09-18T01:59:29;238.82;;;215.52;;
45893;SDS011;31603;51.148;16.932;2023-09-18T02:01:55;196.77;;;177.50;;
45893;SDS011;31603;51.148;16.932;2023-09-18T02:04:22;141.82;;;124.43;;
45893;SDS011;31603;51.148;16.932;2023-09-18T02:06:49;105.97;;;35.08;;
45893;SDS011;31603;51.148;16.932;2023-09-18T02:09:15;131.55;;;78.97;;
45893;SDS011;31603;51.148;16.932;2023-09-18T02:11:42;105.43;;;41.53;;
45893;SDS011;31603;51.148;16.932;2023-09-18T02:14:10;95.65;;;23.83;;
45893;SDS011;31603;51.148;16.932;2023-09-18T02:16:37;86.13;;;36.78;;
45893;SDS011;31603;51.148;16.932;2023-09-18T02:19:06;86.25;;;27.05;;
45893;SDS011;31603;51.148;16.932;2023-09-18T02:21:33;63.97;;;18.33;;
45893;SDS011;31603;51.148;16.932;2023-09-18T02:23:59;74.95;;;26.17;;
45893;SDS011;31603;51.148;16.932;2023-09-18T02:26:25;90.60;;;20.88;;
45893;SDS011;31603;51.148;16.932;2023-09-18T02:28:52;96.10;;;45.80;;
45893;SDS011;31603;51.148;16.932;2023-09-18T02:31:19;96.97;;;33.95;;
45893;SDS011;31603;51.148;16.932;2023-09-18T02:33:46;173.95;;;118.30;;
45893;SDS011;31603;51.148;16.932;2023-09-18T02:36:12;110.82;;;51.92;;
45893;SDS011;31603;51.148;16.932;2023-09-18T02:38:38;99.70;;;41.55;;
45893;SDS011;31603;51.148;16.932;2023-09-18T02:41:05;173.93;;;155.75;;
45893;SDS011;31603;51.148;16.932;2023-09-18T02:43:31;308.85;;;275.67;;
45893;SDS011;31603;51.148;16.932;2023-09-18T02:45:57;326.00;;;289.10;;
45893;SDS011;31603;51.148;16.932;2023-09-18T02:48:25;182.32;;;129.68;;
45893;SDS011;31603;51.148;16.932;2023-09-18T02:50:51;113.78;;;73.78;;
45893;SDS011;31603;51.148;16.932;2023-09-18T02:53:18;152.52;;;134.40;;
45893;SDS011;31603;51.148;16.932;2023-09-18T02:55:45;114.97;;;85.30;;
45893;SDS011;31603;51.148;16.932;2023-09-18T02:58:11;204.95;;;185.38;;
45893;SDS011;31603;51.148;16.932;2023-09-18T03:00:40;71.55;;;12.50;;
45893;SDS011;31603;51.148;16.932;2023-09-18T03:03:07;90.07;;;58.97;;
45893;SDS011;31603;51.148;16.932;2023-09-18T03:05:34;126.63;;;100.18;;
45893;SDS011;31603;51.148;16.932;2023-09-18T03:08:01;101.63;;;77.20;;
45893;SDS011;31603;51.148;16.932;2023-09-18T03:10:27;60.97;;;30.77;;
45893;SDS011;31603;51.148;16.932;2023-09-18T03:12:53;72.03;;;22.25;;
45893;SDS011;31603;51.148;16.932;2023-09-18T03:15:20;79.38;;;27.55;;
45893;SDS011;31603;51.148;16.932;2023-09-18T03:17:46;89.35;;;37.58;;
45893;SDS011;31603;51.148;16.932;2023-09-18T03:20:12;88.63;;;22.85;;
45893;SDS011;31603;51.148;16.932;2023-09-18T03:22:40;95.22;;;33.88;;
45893;SDS011;31603;51.148;16.932;2023-09-18T03:25:06;113.78;;;48.88;;
45893;SDS011;31603;51.148;16.932;2023-09-18T03:27:33;90.63;;;24.25;;
45893;SDS011;31603;51.148;16.932;2023-09-18T03:29:59;84.82;;;26.08;;
45893;SDS011;31603;51.148;16.932;2023-09-18T03:32:25;82.60;;;22.77;;
45893;SDS011;31603;51.148;16.932;2023-09-18T03:34:52;81.22;;;22.48;;
45893;SDS011;31603;51.148;16.932;2023-09-18T03:37:18;93.28;;;27.35;;
45893;SDS011;31603;51.148;16.932;2023-09-18T03:39:46;92.80;;;19.65;;
45893;SDS011;31603;51.148;16.932;2023-09-18T03:42:12;82.13;;;19.52;;
45893;SDS011;31603;51.148;16.932;2023-09-18T03:44:38;72.45;;;19.13;;
45893;SDS011;31603;51.148;16.932;2023-09-18T03:47:05;74.50;;;17.88;;
45893;SDS011;31603;51.148;16.932;2023-09-18T03:49:31;75.35;;;17.42;;
45893;SDS011;31603;51.148;16.932;2023-09-18T03:51:57;58.45;;;18.08;;
45893;SDS011;31603;51.148;16.932;2023-09-18T03:54:23;84.32;;;20.00;;
45893;SDS011;31603;51.148;16.932;2023-09-18T03:56:51;80.60;;;18.58;;
45893;SDS011;31603;51.148;16.932;2023-09-18T03:59:17;72.10;;;18.75;;
45893;SDS011;31603;51.148;16.932;2023-09-18T04:01:44;57.83;;;15.40;;
45893;SDS011;31603;51.148;16.932;2023-09-18T04:04:10;75.57;;;17.65;;
45893;SDS011;31603;51.148;16.932;2023-09-18T04:06:36;76.00;;;17.75;;
45893;SDS011;31603;51.148;16.932;2023-09-18T04:09:03;75.95;;;18.70;;
45893;SDS011;31603;51.148;16.932;2023-09-18T04:11:30;58.45;;;17.25;;
45893;SDS011;31603;51.148;16.932;2023-09-18T04:13:58;65.88;;;17.83;;
45893;SDS011;31603;51.148;16.932;2023-09-18T04:16:25;62.75;;;16.50;;
45893;SDS011;31603;51.148;16.932;2023-09-18T04:18:51;93.28;;;19.33;;
45893;SDS011;31603;51.148;16.932;2023-09-18T04:21:17;78.47;;;19.20;;
45893;SDS011;31603;51.148;16.932;2023-09-18T04:23:44;68.22;;;16.08;;
45893;SDS011;31603;51.148;16.932;2023-09-18T04:26:10;67.50;;;17.30;;
45893;SDS011;31603;51.148;16.932;2023-09-18T04:28:41;67.88;;;16.65;;
45893;SDS011;31603;51.148;16.932;2023-09-18T04:31:08;86.30;;;18.92;;
45893;SDS011;31603;51.148;16.932;2023-09-18T04:33:35;124.20;;;23.05;;
45893;SDS011;31603;51.148;16.932;2023-09-18T04:36:02;80.82;;;18.42;;
45893;SDS011;31603;51.148;16.932;2023-09-18T04:38:28;73.35;;;16.73;;
45893;SDS011;31603;51.148;16.932;2023-09-18T04:40:58;79.05;;;19.00;;
45893;SDS011;31603;51.148;16.932;2023-09-18T04:43:24;49.03;;;15.45;;
45893;SDS011;31603;51.148;16.932;2023-09-18T04:45:50;94.80;;;20.92;;
45893;SDS011;31603;51.148;16.932;2023-09-18T04:48:18;79.32;;;19.05;;
45893;SDS011;31603;51.148;16.932;2023-09-18T04:50:44;84.28;;;19.80;;
45893;SDS011;31603;51.148;16.932;2023-09-18T04:53:11;87.18;;;19.77;;
45893;SDS011;31603;51.148;16.932;2023-09-18T04:55:37;89.38;;;20.00;;
45893;SDS011;31603;51.148;16.932;2023-09-18T04:58:04;83.30;;;19.73;;
45893;SDS011;31603;51.148;16.932;2023-09-18T05:00:31;92.15;;;21.58;;
45893;SDS011;31603;51.148;16.932;2023-09-18T05:02:58;82.03;;;21.50;;
45893;SDS011;31603;51.148;16.932;2023-09-18T05:05:28;82.00;;;22.00;;
45893;SDS011;31603;51.148;16.932;2023-09-18T05:07:54;53.05;;;18.60;;
45893;SDS011;31603;51.148;16.932;2023-09-18T05:10:21;75.43;;;23.70;;
45893;SDS011;31603;51.148;16.932;2023-09-18T05:12:48;78.82;;;24.98;;
45893;SDS011;31603;51.148;16.932;2023-09-18T05:15:15;95.57;;;25.15;;
45893;SDS011;31603;51.148;16.932;2023-09-18T05:17:42;97.60;;;23.55;;
45893;SDS011;31603;51.148;16.932;2023-09-18T05:20:09;91.50;;;29.73;;
45893;SDS011;31603;51.148;16.932;2023-09-18T05:22:39;71.35;;;22.40;;
45893;SDS011;31603;51.148;16.932;2023-09-18T05:25:07;64.72;;;22.98;;
45893;SDS011;31603;51.148;16.932;2023-09-18T05:27:35;71.88;;;20.60;;
45893;SDS011;31603;51.148;16.932;2023-09-18T05:30:01;91.80;;;24.67;;
45893;SDS011;31603;51.148;16.932;2023-09-18T05:32:27;76.07;;;20.10;;
45893;SDS011;31603;51.148;16.932;2023-09-18T05:34:54;97.30;;;26.13;;
45893;SDS011;31603;51.148;16.932;2023-09-18T05:37:20;107.68;;;27.58;;
45893;SDS011;31603;51.148;16.932;2023-09-18T05:39:48;105.10;;;40.22;;
45893;SDS011;31603;51.148;16.932;2023-09-18T05:42:14;105.00;;;56.38;;
45893;SDS011;31603;51.148;16.932;2023-09-18T05:44:41;133.52;;;106.15;;
45893;SDS011;31603;51.148;16.932;2023-09-18T05:47:07;102.65;;;61.10;;
45893;SDS011;31603;51.148;16.932;2023-09-18T05:49:34;108.40;;;38.95;;
45893;SDS011;31603;51.148;16.932;2023-09-18T05:52:00;74.00;;;34.13;;
45893;SDS011;31603;51.148;16.932;2023-09-18T05:54:27;86.32;;;30.92;;
45893;SDS011;31603;51.148;16.932;2023-09-18T05:56:54;71.05;;;31.95;;
45893;SDS011;31603;51.148;16.932;2023-09-18T05:59:21;99.50;;;34.83;;
45893;SDS011;31603;51.148;16.932;2023-09-18T06:01:47;162.68;;;91.72;;
45893;SDS011;31603;51.148;16.932;2023-09-18T06:04:14;130.50;;;98.40;;
45893;SDS011;31603;51.148;16.932;2023-09-18T06:06:41;139.88;;;87.25;;
45893;SDS011;31603;51.148;16.932;2023-09-18T06:09:08;206.98;;;187.20;;
45893;SDS011;31603;51.148;16.932;2023-09-18T06:11:35;167.40;;;150.15;;
45893;SDS011;31603;51.148;16.932;2023-09-18T06:14:02;142.57;;;127.82;;
45893;SDS011;31603;51.148;16.932;2023-09-18T06:16:29;289.27;;;262.25;;
45893;SDS011;31603;51.148;16.932;2023-09-18T06:18:56;337.77;;;302.42;;
45893;SDS011;31603;51.148;16.932;2023-09-18T06:21:22;327.83;;;294.00;;
45893;SDS011;31603;51.148;16.932;2023-09-18T06:23:48;284.25;;;255.45;;
45893;SDS011;31603;51.148;16.932;2023-09-18T06:26:16;277.60;;;248.75;;
45893;SDS011;31603;51.148;16.932;2023-09-18T06:28:43;387.95;;;298.42;;
45893;SDS011;31603;51.148;16.932;2023-09-18T06:31:10;350.77;;;290.58;;
45893;SDS011;31603;51.148;16.932;2023-09-18T06:33:37;456.98;;;335.45;;
45893;SDS011;31603;51.148;16.932;2023-09-18T06:36:03;404.17;;;325.73;;
45893;SDS011;31603;51.148;16.932;2023-09-18T06:38:29;416.17;;;324.75;;
45893;SDS011;31603;51.148;16.932;2023-09-18T06:40:56;412.33;;;319.27;;
45893;SDS011;31603;51.148;16.932;2023-09-18T06:43:22;507.33;;;317.55;;
45893;SDS011;31603;51.148;16.932;2023-09-18T06:45:49;504.80;;;308.77;;
45893;SDS011;31603;51.148;16.932;2023-09-18T06:48:16;408.33;;;359.48;;
45893;SDS011;31603;51.148;16.932;2023-09-18T06:50:43;440.42;;;386.98;;
45893;SDS011;31603;51.148;16.932;2023-09-18T06:53:09;515.40;;;353.48;;
45893;SDS011;31603;51.148;16.932;2023-09-18T06:55:36;461.98;;;399.88;;
45893;SDS011;31603;51.148;16.932;2023-09-18T06:58:03;503.75;;;403.20;;
45893;SDS011;31603;51.148;16.932;2023-09-18T07:00:29;468.85;;;420.90;;
45893;SDS011;31603;51.148;16.932;2023-09-18T07:02:55;450.95;;;401.52;;
45893;SDS011;31603;51.148;16.932;2023-09-18T07:05:23;460.20;;;318.95;;
45893;SDS011;31603;51.148;16.932;2023-09-18T07:07:49;505.58;;;379.27;;
45893;SDS011;31603;51.148;16.932;2023-09-18T07:10:16;524.22;;;350.52;;
45893;SDS011;31603;51.148;16.932;2023-09-18T07:12:42;490.38;;;359.10;;
45893;SDS011;31603;51.148;16.932;2023-09-18T07:15:08;517.88;;;345.85;;
45893;SDS011;31603;51.148;16.932;2023-09-18T07:17:35;526.10;;;370.02;;
45893;SDS011;31603;51.148;16.932;2023-09-18T07:20:01;519.53;;;360.98;;
45893;SDS011;31603;51.148;16.932;2023-09-18T07:22:36;508.10;;;357.80;;
45893;SDS011;31603;51.148;16.932;2023-09-18T07:25:03;516.45;;;364.30;;
45893;SDS011;31603;51.148;16.932;2023-09-18T07:27:30;510.38;;;357.80;;
45893;SDS011;31603;51.148;16.932;2023-09-18T07:29:56;515.25;;;372.15;;
45893;SDS011;31603;51.148;16.932;2023-09-18T07:32:23;366.67;;;331.52;;
45893;SDS011;31603;51.148;16.932;2023-09-18T07:34:49;500.15;;;369.15;;
45893;SDS011;31603;51.148;16.932;2023-09-18T07:37:16;506.02;;;375.08;;
45893;SDS011;31603;51.148;16.932;2023-09-18T07:39:47;446.58;;;400.80;;
45893;SDS011;31603;51.148;16.932;2023-09-18T07:42:13;440.60;;;397.88;;
45893;SDS011;31603;51.148;16.932;2023-09-18T07:44:39;480.20;;;428.23;;
45893;SDS011;31603;51.148;16.932;2023-09-18T07:47:06;527.95;;;428.77;;
45893;SDS011;31603;51.148;16.932;2023-09-18T07:49:33;528.60;;;428.83;;
45893;SDS011;31603;51.148;16.932;2023-09-18T07:51:59;433.90;;;398.27;;
45893;SDS011;31603;51.148;16.932;2023-09-18T07:54:25;455.10;;;420.85;;
45893;SDS011;31603;51.148;16.932;2023-09-18T07:56:54;421.15;;;389.95;;
45893;SDS011;31603;51.148;16.932;2023-09-18T07:59:20;513.08;;;473.67;;
45893;SDS011;31603;51.148;16.932;2023-09-18T08:01:46;562.00;;;516.33;;
45893;SDS011;31603;51.148;16.932;2023-09-18T08:04:13;527.95;;;490.10;;
45893;SDS011;31603;51.148;16.932;2023-09-18T08:06:39;582.10;;;529.35;;
45893;SDS011;31603;51.148;16.932;2023-09-18T08:09:06;610.35;;;555.10;;
45893;SDS011;31603;51.148;16.932;2023-09-18T08:11:34;306.25;;;282.38;;
45893;SDS011;31603;51.148;16.932;2023-09-18T08:14:02;576.88;;;529.05;;
45893;SDS011;31603;51.148;16.932;2023-09-18T08:16:29;601.67;;;548.83;;
45893;SDS011;31603;51.148;16.932;2023-09-18T08:18:55;585.03;;;528.22;;
45893;SDS011;31603;51.148;16.932;2023-09-18T08:21:21;598.13;;;537.20;;
45893;SDS011;31603;51.148;16.932;2023-09-18T08:23:48;564.75;;;502.75;;
45893;SDS011;31603;51.148;16.932;2023-09-18T08:26:15;549.05;;;466.83;;
45893;SDS011;31603;51.148;16.932;2023-09-18T08:28:43;554.08;;;504.75;;
45893;SDS011;31603;51.148;16.932;2023-09-18T08:31:10;541.10;;;489.55;;
45893;SDS011;31603;51.148;16.932;2023-09-18T08:33:37;546.08;;;487.13;;
45893;SDS011;31603;51.148;16.932;2023-09-18T08:36:03;542.70;;;485.33;;
45893;SDS011;31603;51.148;16.932;2023-09-18T08:38:29;527.80;;;480.15;;
45893;SDS011;31603;51.148;16.932;2023-09-18T08:40:56;542.30;;;495.20;;
45893;SDS011;31603;51.148;16.932;2023-09-18T08:43:23;530.30;;;465.20;;
45893;SDS011;31603;51.148;16.932;2023-09-18T08:45:51;540.28;;;464.17;;
45893;SDS011;31603;51.148;16.932;2023-09-18T08:48:19;551.20;;;502.25;;
45893;SDS011;31603;51.148;16.932;2023-09-18T08:50:46;574.00;;;515.03;;
45893;SDS011;31603;51.148;16.932;2023-09-18T08:53:13;545.28;;;491.42;;
45893;SDS011;31603;51.148;16.932;2023-09-18T08:55:39;580.35;;;530.67;;
45893;SDS011;31603;51.148;16.932;2023-09-18T08:58:06;402.63;;;372.00;;
45893;SDS011;31603;51.148;16.932;2023-09-18T09:00:32;290.95;;;266.58;;
45893;SDS011;31603;51.148;16.932;2023-09-18T09:03:00;351.33;;;325.70;;
45893;SDS011;31603;51.148;16.932;2023-09-18T09:05:28;542.17;;;500.17;;
45893;SDS011;31603;51.148;16.932;2023-09-18T09:07:54;565.13;;;520.58;;
45893;SDS011;31603;51.148;16.932;2023-09-18T09:10:21;294.73;;;273.58;;
45893;SDS011;31603;51.148;16.932;2023-09-18T09:12:48;290.15;;;267.55;;
45893;SDS011;31603;51.148;16.932;2023-09-18T09:15:15;258.58;;;238.48;;
45893;SDS011;31603;51.148;16.932;2023-09-18T09:17:41;243.77;;;225.32;;
45893;SDS011;31603;51.148;16.932;2023-09-18T09:20:08;411.38;;;381.38;;
45893;SDS011;31603;51.148;16.932;2023-09-18T09:22:37;370.67;;;344.55;;
45893;SDS011;31603;51.148;16.932;2023-09-18T09:25:05;161.20;;;145.50;;
45893;SDS011;31603;51.148;16.932;2023-09-18T09:27:47;74.22;;;37.95;;
45893;SDS011;31603;51.148;16.932;2023-09-18T09:30:16;83.30;;;35.58;;
45893;SDS011;31603;51.148;16.932;2023-09-18T09:32:44;95.55;;;50.65;;
45893;SDS011;31603;51.148;16.932;2023-09-18T09:35:18;118.70;;;104.95;;
45893;SDS011;31603;51.148;16.932;2023-09-18T09:37:45;94.63;;;62.83;;
45893;SDS011;31603;51.148;16.932;2023-09-18T09:40:12;88.80;;;60.75;;
45893;SDS011;31603;51.148;16.932;2023-09-18T09:42:39;79.43;;;26.77;;
45893;SDS011;31603;51.148;16.932;2023-09-18T09:45:10;112.97;;;78.05;;
45893;SDS011;31603;51.148;16.932;2023-09-18T09:47:37;169.30;;;155.43;;
45893;SDS011;31603;51.148;16.932;2023-09-18T09:50:07;133.05;;;118.68;;
45893;SDS011;31603;51.148;16.932;2023-09-18T09:55:03;91.03;;;37.88;;
45893;SDS011;31603;51.148;16.932;2023-09-18T09:57:46;81.70;;;28.25;;
45893;SDS011;31603;51.148;16.932;2023-09-18T10:00:13;50.53;;;15.30;;
45893;SDS011;31603;51.148;16.932;2023-09-18T10:02:51;86.85;;;28.13;;
45893;SDS011;31603;51.148;16.932;2023-09-18T10:05:18;95.72;;;20.02;;
45893;SDS011;31603;51.148;16.932;2023-09-18T10:07:45;72.80;;;20.55;;
45893;SDS011;31603;51.148;16.932;2023-09-18T10:10:13;80.00;;;27.42;;
45893;SDS011;31603;51.148;16.932;2023-09-18T10:12:39;98.20;;;24.30;;
45893;SDS011;31603;51.148;16.932;2023-09-18T10:15:06;89.80;;;24.90;;
45893;SDS011;31603;51.148;16.932;2023-09-18T10:17:34;104.40;;;52.83;;
45893;SDS011;31603;51.148;16.932;2023-09-18T10:20:05;94.50;;;32.28;;
45893;SDS011;31603;51.148;16.932;2023-09-18T10:22:37;119.68;;;83.80;;
45893;SDS011;31603;51.148;16.932;2023-09-18T10:25:04;70.35;;;19.45;;
45893;SDS011;31603;51.148;16.932;2023-09-18T10:27:36;92.47;;;19.05;;
45893;SDS011;31603;51.148;16.932;2023-09-18T10:30:04;83.53;;;21.80;;
45893;SDS011;31603;51.148;16.932;2023-09-18T10:32:36;68.35;;;16.92;;
45893;SDS011;31603;51.148;16.932;2023-09-18T10:35:03;61.80;;;23.33;;
45893;SDS011;31603;51.148;16.932;2023-09-18T10:37:30;58.65;;;45.95;;
45893;SDS011;31603;51.148;16.932;2023-09-18T10:39:56;54.22;;;23.08;;
45893;SDS011;31603;51.148;16.932;2023-09-18T10:42:23;60.00;;;17.38;;
45893;SDS011;31603;51.148;16.932;2023-09-18T10:44:50;60.03;;;24.20;;
45893;SDS011;31603;51.148;16.932;2023-09-18T10:47:17;80.13;;;56.42;;
45893;SDS011;31603;51.148;16.932;2023-09-18T10:49:45;49.92;;;21.90;;
45893;SDS011;31603;51.148;16.932;2023-09-18T10:52:11;54.75;;;17.92;;
45893;SDS011;31603;51.148;16.932;2023-09-18T10:54:37;83.03;;;50.30;;
45893;SDS011;31603;51.148;16.932;2023-09-18T10:57:04;94.78;;;58.28;;
45893;SDS011;31603;51.148;16.932;2023-09-18T10:59:30;95.20;;;61.47;;
45893;SDS011;31603;51.148;16.932;2023-09-18T11:02:02;51.63;;;43.28;;
45893;SDS011;31603;51.148;16.932;2023-09-18T11:04:29;50.90;;;22.75;;
45893;SDS011;31603;51.148;16.932;2023-09-18T11:07:04;50.60;;;10.90;;
45893;SDS011;31603;51.148;16.932;2023-09-18T11:09:41;30.75;;;9.30;;
45893;SDS011;31603;51.148;16.932;2023-09-18T11:12:08;29.50;;;10.05;;
45893;SDS011;31603;51.148;16.932;2023-09-18T11:14:44;39.67;;;10.20;;
45893;SDS011;31603;51.148;16.932;2023-09-18T11:17:34;39.28;;;10.80;;
45893;SDS011;31603;51.148;16.932;2023-09-18T11:20:08;36.70;;;9.23;;
45893;SDS011;31603;51.148;16.932;2023-09-18T11:22:37;35.80;;;10.27;;
45893;SDS011;31603;51.148;16.932;2023-09-18T11:27:53;32.05;;;9.68;;
45893;SDS011;31603;51.148;16.932;2023-09-18T11:30:20;30.35;;;9.68;;
45893;SDS011;31603;51.148;16.932;2023-09-18T11:32:48;39.00;;;10.32;;
45893;SDS011;31603;51.148;16.932;2023-09-18T11:35:14;24.75;;;8.68;;
45893;SDS011;31603;51.148;16.932;2023-09-18T11:37:42;26.27;;;8.50;;
45893;SDS011;31603;51.148;16.932;2023-09-18T11:45:32;28.13;;;9.07;;
45893;SDS011;31603;51.148;16.932;2023-09-18T11:48:00;30.48;;;8.30;;
45893;SDS011;31603;51.148;16.932;2023-09-18T11:50:26;26.42;;;8.13;;
45893;SDS011;31603;51.148;16.932;2023-09-18T11:52:56;28.35;;;7.55;;
45893;SDS011;31603;51.148;16.932;2023-09-18T11:55:23;151.52;;;139.50;;
45893;SDS011;31603;51.148;16.932;2023-09-18T11:57:49;677.97;;;627.55;;
45893;SDS011;31603;51.148;16.932;2023-09-18T12:02:50;647.13;;;602.10;;
45893;SDS011;31603;51.148;16.932;2023-09-18T12:05:17;656.35;;;608.53;;
45893;SDS011;31603;51.148;16.932;2023-09-18T12:07:45;682.15;;;632.17;;
45893;SDS011;31603;51.148;16.932;2023-09-18T12:10:11;21.42;;;6.47;;
45893;SDS011;31603;51.148;16.932;2023-09-18T12:12:38;29.83;;;11.75;;
45893;SDS011;31603;51.148;16.932;2023-09-18T12:15:05;23.20;;;7.10;;
45893;SDS011;31603;51.148;16.932;2023-09-18T12:17:31;30.77;;;6.82;;
45893;SDS011;31603;51.148;16.932;2023-09-18T12:19:58;15.77;;;5.25;;
45893;SDS011;31603;51.148;16.932;2023-09-18T12:22:29;25.23;;;6.05;;
45893;SDS011;31603;51.148;16.932;2023-09-18T12:25:09;26.73;;;7.80;;
45893;SDS011;31603;51.148;16.932;2023-09-18T12:27:35;723.53;;;662.60;;
45893;SDS011;31603;51.148;16.932;2023-09-18T12:30:02;35.22;;;7.18;;
45893;SDS011;31603;51.148;16.932;2023-09-18T12:32:29;30.90;;;6.97;;
45893;SDS011;31603;51.148;16.932;2023-09-18T12:34:57;31.55;;;8.02;;
45893;SDS011;31603;51.148;16.932;2023-09-18T12:37:24;24.17;;;6.03;;
45893;SDS011;31603;51.148;16.932;2023-09-18T12:39:52;31.30;;;6.43;;
45893;SDS011;31603;51.148;16.932;2023-09-18T12:42:18;27.27;;;7.07;;
45893;SDS011;31603;51.148;16.932;2023-09-18T12:44:45;23.40;;;7.25;;
45893;SDS011;31603;51.148;16.932;2023-09-18T12:47:11;29.95;;;8.05;;
45893;SDS011;31603;51.148;16.932;2023-09-18T12:49:38;33.30;;;7.68;;
45893;SDS011;31603;51.148;16.932;2023-09-18T12:52:05;32.55;;;7.38;;
45893;SDS011;31603;51.148;16.932;2023-09-18T12:54:38;23.63;;;6.65;;
45893;SDS011;31603;51.148;16.932;2023-09-18T12:57:07;28.05;;;6.45;;
45893;SDS011;31603;51.148;16.932;2023-09-18T12:59:33;29.90;;;6.45;;
45893;SDS011;31603;51.148;16.932;2023-09-18T13:02:00;24.48;;;6.47;;
45893;SDS011;31603;51.148;16.932;2023-09-18T13:04:29;374.52;;;347.00;;
45893;SDS011;31603;51.148;16.932;2023-09-18T13:07:10;559.63;;;520.17;;
45893;SDS011;31603;51.148;16.932;2023-09-18T13:09:36;598.40;;;552.72;;
45893;SDS011;31603;51.148;16.932;2023-09-18T13:12:03;620.95;;;574.67;;
45893;SDS011;31603;51.148;16.932;2023-09-18T13:14:40;649.72;;;602.88;;
45893;SDS011;31603;51.148;16.932;2023-09-18T13:17:17;153.68;;;134.57;;
45893;SDS011;31603;51.148;16.932;2023-09-18T13:19:43;140.90;;;127.40;;
45893;SDS011;31603;51.148;16.932;2023-09-18T13:22:10;244.63;;;225.45;;
45893;SDS011;31603;51.148;16.932;2023-09-18T13:24:36;615.35;;;572.88;;
45893;SDS011;31603;51.148;16.932;2023-09-18T13:27:03;207.45;;;189.45;;
45893;SDS011;31603;51.148;16.932;2023-09-18T13:29:31;169.55;;;152.43;;
45893;SDS011;31603;51.148;16.932;2023-09-18T13:31:57;466.65;;;432.30;;
45893;SDS011;31603;51.148;16.932;2023-09-18T13:34:25;343.67;;;317.95;;
45893;SDS011;31603;51.148;16.932;2023-09-18T13:36:54;379.65;;;352.63;;
45893;SDS011;31603;51.148;16.932;2023-09-18T13:39:21;442.70;;;409.50;;
45893;SDS011;31603;51.148;16.932;2023-09-18T13:41:47;680.17;;;627.30;;
45893;SDS011;31603;51.148;16.932;2023-09-18T13:44:13;689.80;;;629.63;;
45893;SDS011;31603;51.148;16.932;2023-09-18T13:46:41;670.05;;;615.90;;
45893;SDS011;31603;51.148;16.932;2023-09-18T13:49:07;599.88;;;557.45;;
45893;SDS011;31603;51.148;16.932;2023-09-18T13:51:34;171.63;;;137.13;;
45893;SDS011;31603;51.148;16.932;2023-09-18T13:54:00;184.75;;;169.23;;
45893;SDS011;31603;51.148;16.932;2023-09-18T13:56:28;417.45;;;387.00;;
45893;SDS011;31603;51.148;16.932;2023-09-18T13:58:55;117.18;;;73.10;;
45893;SDS011;31603;51.148;16.932;2023-09-18T14:01:22;96.78;;;87.00;;
45893;SDS011;31603;51.148;16.932;2023-09-18T14:03:51;108.38;;;51.72;;
45893;SDS011;31603;51.148;16.932;2023-09-18T14:06:17;80.50;;;24.73;;
45893;SDS011;31603;51.148;16.932;2023-09-18T14:08:43;77.65;;;24.85;;
45893;SDS011;31603;51.148;16.932;2023-09-18T14:11:10;86.78;;;16.42;;
45893;SDS011;31603;51.148;16.932;2023-09-18T14:13:37;65.65;;;13.02;;